createdAt,value
2018-01-29T00:00:43.270Z,7.30
2018-01-29T00:01:46.581Z,6.82
2018-01-29T00:02:49.058Z,7.40
2018-01-29T00:03:51.591Z,6.82
2018-01-29T00:04:54.077Z,6.87
2018-01-29T00:05:56.537Z,7.00
2018-01-29T00:06:59.008Z,6.55
2018-01-29T00:08:01.808Z,6.20
2018-01-29T00:09:04.341Z,6.68
2018-01-29T00:10:06.825Z,6.47
2018-01-29T00:11:10.039Z,6.45
2018-01-29T00:12:12.518Z,6.20
2018-01-29T00:13:15.022Z,6.35
2018-01-29T00:14:18.240Z,6.10
2018-01-29T00:15:21.511Z,5.70
2018-01-29T00:16:23.984Z,5.53
2018-01-29T00:17:26.465Z,6.45
2018-01-29T00:18:28.938Z,5.15
2018-01-29T00:19:31.409Z,5.97
2018-01-29T00:20:33.956Z,6.03
2018-01-29T00:21:36.408Z,5.57
2018-01-29T00:22:38.870Z,5.85
2018-01-29T00:23:42.103Z,5.37
2018-01-29T00:24:44.648Z,5.87
2018-01-29T00:25:48.014Z,5.60
2018-01-29T00:26:50.490Z,5.68
2018-01-29T00:27:52.968Z,6.05
2018-01-29T00:28:55.421Z,5.82
2018-01-29T00:29:57.905Z,5.30
2018-01-29T00:31:00.396Z,6.00
2018-01-29T00:32:02.847Z,6.05
2018-01-29T00:33:06.454Z,5.93
2018-01-29T00:34:09.276Z,5.22
2018-01-29T00:35:11.759Z,5.80
2018-01-29T00:36:15.104Z,5.28
2018-01-29T00:37:17.574Z,5.95
2018-01-29T00:38:20.064Z,5.55
2018-01-29T00:39:22.536Z,5.70
2018-01-29T00:40:26.427Z,6.15
2018-01-29T00:41:28.962Z,5.45
2018-01-29T00:42:31.432Z,5.57
2018-01-29T00:43:34.108Z,5.70
2018-01-29T00:44:36.568Z,5.32
2018-01-29T00:45:39.060Z,6.95
2018-01-29T00:46:41.636Z,5.65
2018-01-29T00:47:44.114Z,5.78
2018-01-29T00:48:46.634Z,5.72
2018-01-29T00:49:49.890Z,6.10
2018-01-29T00:50:52.354Z,5.57
2018-01-29T00:51:54.828Z,5.70
2018-01-29T00:52:57.358Z,5.40
2018-01-29T00:53:59.883Z,5.20
2018-01-29T00:55:02.341Z,5.78
2018-01-29T00:56:04.806Z,5.50
2018-01-29T00:57:08.035Z,5.80
2018-01-29T00:58:10.602Z,5.15
2018-01-29T00:59:13.071Z,5.32
2018-01-29T01:00:15.536Z,5.32
2018-01-29T01:01:18.793Z,4.97
2018-01-29T01:02:21.258Z,4.70
2018-01-29T01:03:23.723Z,5.75
2018-01-29T01:04:26.174Z,5.25
2018-01-29T01:05:28.655Z,5.35
2018-01-29T01:06:31.900Z,4.70
2018-01-29T01:07:35.901Z,4.80
2018-01-29T01:08:38.377Z,5.57
2018-01-29T01:09:40.842Z,5.35
2018-01-29T01:10:43.307Z,4.90
2018-01-29T01:11:45.766Z,5.65
2018-01-29T01:12:49.014Z,5.70
2018-01-29T01:13:52.254Z,5.60
2018-01-29T01:14:55.494Z,5.50
2018-01-29T01:15:57.955Z,5.15
2018-01-29T01:17:00.403Z,5.47
2018-01-29T01:18:02.870Z,5.18
2018-01-29T01:19:06.138Z,5.28
2018-01-29T01:20:08.610Z,5.45
2018-01-29T01:21:11.074Z,5.45
2018-01-29T01:22:14.329Z,5.87
2018-01-29T01:23:16.784Z,5.80
2018-01-29T01:24:19.277Z,5.82
2018-01-29T01:25:21.822Z,5.55
2018-01-29T01:26:24.359Z,6.22
2018-01-29T01:27:27.567Z,5.90
2018-01-29T01:28:30.048Z,6.20
2018-01-29T01:29:32.550Z,5.72
2018-01-29T01:30:35.065Z,5.90
2018-01-29T01:31:37.545Z,5.57
2018-01-29T01:32:40.147Z,5.32
2018-01-29T01:33:42.600Z,5.70
2018-01-29T01:34:45.864Z,5.68
2018-01-29T01:35:48.337Z,5.20
2018-01-29T01:36:50.790Z,5.53
2018-01-29T01:37:53.338Z,5.50
2018-01-29T01:38:55.832Z,5.50
2018-01-29T01:39:58.276Z,5.50
2018-01-29T01:41:01.548Z,5.35
2018-01-29T01:42:04.014Z,5.05
2018-01-29T01:43:06.478Z,5.28
2018-01-29T01:44:08.954Z,5.40
2018-01-29T01:45:11.484Z,5.20
2018-01-29T01:46:13.970Z,5.20
2018-01-29T01:47:16.425Z,5.20
2018-01-29T01:48:18.954Z,4.90
2018-01-29T01:49:36.377Z,5.25
2018-01-29T01:50:39.598Z,5.10
2018-01-29T01:51:42.834Z,6.07
2018-01-29T01:52:46.148Z,5.75
2018-01-29T01:53:48.678Z,5.18
2018-01-29T01:54:51.133Z,4.90
2018-01-29T01:55:54.466Z,5.25
2018-01-29T01:56:56.943Z,5.40
2018-01-29T01:57:59.392Z,5.50
2018-01-29T01:59:01.847Z,5.68
2018-01-29T02:00:05.103Z,5.28
2018-01-29T02:01:08.326Z,4.97
2018-01-29T02:02:11.540Z,6.10
2018-01-29T02:03:14.040Z,5.10
2018-01-29T02:04:16.594Z,5.22
2018-01-29T02:05:19.084Z,5.00
2018-01-29T02:06:21.752Z,5.62
2018-01-29T02:07:24.275Z,5.07
2018-01-29T02:08:26.717Z,4.90
2018-01-29T02:09:29.179Z,4.85
2018-01-29T02:10:32.406Z,4.95
2018-01-29T02:11:35.671Z,5.03
2018-01-29T02:12:38.157Z,5.15
2018-01-29T02:13:41.403Z,5.57
2018-01-29T02:14:44.629Z,5.05
2018-01-29T02:15:47.094Z,5.37
2018-01-29T02:16:49.571Z,4.37
2018-01-29T02:17:52.050Z,5.30
2018-01-29T02:18:54.505Z,5.00
2018-01-29T02:19:56.994Z,5.45
2018-01-29T02:20:59.465Z,5.60
2018-01-29T02:22:01.944Z,5.05
2018-01-29T02:23:04.413Z,4.93
2018-01-29T02:24:06.877Z,5.10
2018-01-29T02:25:10.144Z,4.47
2018-01-29T02:26:12.609Z,4.85
2018-01-29T02:27:15.069Z,4.93
2018-01-29T02:28:17.514Z,5.25
2018-01-29T02:29:20.040Z,5.18
2018-01-29T02:30:22.521Z,5.35
2018-01-29T02:31:24.983Z,5.80
2018-01-29T02:32:27.465Z,5.32
2018-01-29T02:33:29.932Z,5.32
2018-01-29T02:34:32.427Z,5.37
2018-01-29T02:35:34.883Z,6.15
2018-01-29T02:36:37.360Z,5.45
2018-01-29T02:37:39.818Z,5.40
2018-01-29T02:38:43.060Z,5.78
2018-01-29T02:39:46.327Z,5.43
2018-01-29T02:40:49.557Z,5.90
2018-01-29T02:41:52.068Z,5.25
2018-01-29T02:42:57.123Z,5.07
2018-01-29T02:43:59.638Z,5.28
2018-01-29T02:45:02.117Z,6.00
2018-01-29T02:46:05.345Z,6.00
2018-01-29T02:47:08.703Z,5.65
2018-01-29T02:48:11.171Z,5.53
2018-01-29T02:49:13.649Z,5.32
2018-01-29T02:50:16.104Z,6.05
2018-01-29T02:51:18.584Z,6.68
2018-01-29T02:52:22.157Z,6.18
2018-01-29T02:53:24.609Z,5.95
2018-01-29T02:54:27.084Z,5.87
2018-01-29T02:55:30.707Z,5.30
2018-01-29T02:56:33.177Z,6.10
2018-01-29T02:57:35.687Z,5.75
2018-01-29T02:58:38.940Z,6.65
2018-01-29T02:59:42.174Z,6.75
2018-01-29T03:00:45.464Z,5.80
2018-01-29T03:01:47.994Z,5.70
2018-01-29T03:02:50.457Z,6.47
2018-01-29T03:03:52.928Z,6.62
2018-01-29T03:04:55.402Z,6.07
2018-01-29T03:05:57.846Z,6.93
2018-01-29T03:07:01.088Z,6.10
2018-01-29T03:08:04.356Z,6.57
2018-01-29T03:09:06.814Z,6.60
2018-01-29T03:10:09.300Z,7.22
2018-01-29T03:11:11.798Z,6.15
2018-01-29T03:12:15.052Z,7.30
2018-01-29T03:13:18.283Z,6.95
2018-01-29T03:14:21.512Z,6.45
2018-01-29T03:15:23.969Z,6.72
2018-01-29T03:16:26.454Z,7.57
2018-01-29T03:17:28.944Z,6.40
2018-01-29T03:18:31.439Z,6.85
2018-01-29T03:19:33.898Z,6.62
2018-01-29T03:20:36.368Z,6.07
2018-01-29T03:21:39.595Z,6.35
2018-01-29T03:22:42.648Z,6.25
2018-01-29T03:23:45.956Z,6.00
2018-01-29T03:24:48.430Z,6.07
2018-01-29T03:25:51.654Z,5.75
2018-01-29T03:26:54.154Z,6.00
2018-01-29T03:27:56.622Z,6.40
2018-01-29T03:29:00.184Z,5.82
2018-01-29T03:30:02.654Z,5.70
2018-01-29T03:31:05.117Z,6.50
2018-01-29T03:32:08.377Z,5.90
2018-01-29T03:33:10.822Z,5.87
2018-01-29T03:34:13.272Z,5.80
2018-01-29T03:35:15.729Z,5.87
2018-01-29T03:36:19.015Z,5.50
2018-01-29T03:37:21.616Z,5.72
2018-01-29T03:38:24.142Z,5.20
2018-01-29T03:39:26.597Z,6.37
2018-01-29T03:40:29.090Z,5.40
2018-01-29T03:41:31.552Z,6.37
2018-01-29T03:42:34.071Z,6.10
2018-01-29T03:43:36.535Z,5.78
2018-01-29T03:44:40.518Z,5.47
2018-01-29T03:45:43.745Z,5.93
2018-01-29T03:46:47.000Z,6.15
2018-01-29T03:47:50.241Z,5.82
2018-01-29T03:48:53.484Z,6.45
2018-01-29T03:49:56.737Z,6.35
2018-01-29T03:50:59.212Z,5.60
2018-01-29T03:52:01.692Z,6.15
2018-01-29T03:53:04.272Z,5.03
2018-01-29T03:54:07.510Z,6.72
2018-01-29T03:55:09.969Z,5.97
2018-01-29T03:56:13.197Z,5.97
2018-01-29T03:57:16.455Z,6.25
2018-01-29T03:58:20.502Z,6.68
2018-01-29T03:59:23.729Z,6.47
2018-01-29T04:00:26.189Z,6.25
2018-01-29T04:01:28.645Z,6.20
2018-01-29T04:02:31.110Z,6.22
2018-01-29T04:03:33.811Z,6.05
2018-01-29T04:04:36.301Z,6.05
2018-01-29T04:05:38.792Z,5.68
2018-01-29T04:06:42.079Z,5.97
2018-01-29T04:07:44.583Z,5.80
2018-01-29T04:08:47.838Z,5.68
2018-01-29T04:09:50.324Z,5.60
2018-01-29T04:10:53.574Z,5.50
2018-01-29T04:11:56.806Z,5.35
2018-01-29T04:12:59.270Z,5.50
2018-01-29T04:14:01.749Z,4.85
2018-01-29T04:15:04.214Z,5.18
2018-01-29T04:16:06.689Z,5.47
2018-01-29T04:17:09.751Z,4.97
2018-01-29T04:18:12.254Z,5.18
2018-01-29T04:19:14.709Z,6.20
2018-01-29T04:20:17.932Z,4.78
2018-01-29T04:21:20.396Z,5.45
2018-01-29T04:22:22.871Z,4.80
2018-01-29T04:23:25.374Z,5.18
2018-01-29T04:24:27.827Z,4.70
2018-01-29T04:25:30.305Z,5.50
2018-01-29T04:26:32.818Z,5.40
2018-01-29T04:27:35.311Z,4.90
2018-01-29T04:28:37.811Z,5.20
2018-01-29T04:29:40.296Z,4.60
2018-01-29T04:30:42.770Z,5.15
2018-01-29T04:31:45.257Z,5.50
2018-01-29T04:32:47.756Z,4.65
2018-01-29T04:33:51.036Z,5.15
2018-01-29T04:34:53.503Z,5.07
2018-01-29T04:35:56.886Z,4.95
2018-01-29T04:36:59.358Z,4.60
2018-01-29T04:38:01.862Z,4.93
2018-01-29T04:39:04.333Z,5.20
2018-01-29T04:40:06.794Z,4.78
2018-01-29T04:41:09.281Z,5.25
2018-01-29T04:42:11.828Z,5.18
2018-01-29T04:43:15.073Z,5.10
2018-01-29T04:44:27.638Z,5.93
2018-01-29T04:45:30.633Z,4.85
2018-01-29T04:46:33.102Z,4.97
2018-01-29T04:47:35.854Z,5.72
2018-01-29T04:48:38.309Z,5.22
2018-01-29T04:49:40.861Z,5.20
2018-01-29T04:50:44.266Z,4.95
2018-01-29T04:51:46.738Z,5.47
2018-01-29T04:52:49.960Z,5.35
2018-01-29T04:53:53.196Z,5.82
2018-01-29T04:54:55.751Z,5.85
2018-01-29T04:55:58.980Z,5.15
2018-01-29T04:57:02.205Z,5.55
2018-01-29T04:58:04.672Z,5.60
2018-01-29T04:59:07.139Z,5.53
2018-01-29T05:00:09.722Z,5.50
2018-01-29T05:01:12.198Z,6.25
2018-01-29T05:02:14.666Z,6.45
2018-01-29T05:03:17.132Z,6.15
2018-01-29T05:04:19.602Z,5.72
2018-01-29T05:05:23.175Z,6.35
2018-01-29T05:06:25.629Z,5.50
2018-01-29T05:07:28.114Z,6.03
2018-01-29T05:08:30.588Z,6.60
2018-01-29T05:09:33.122Z,6.60
2018-01-29T05:10:35.996Z,6.32
2018-01-29T05:11:38.542Z,6.43
2018-01-29T05:12:41.037Z,6.00
2018-01-29T05:13:43.505Z,6.20
2018-01-29T05:14:46.104Z,6.53
2018-01-29T05:15:48.581Z,6.62
2018-01-29T05:16:51.056Z,6.80
2018-01-29T05:17:53.559Z,7.22
2018-01-29T05:18:56.815Z,7.30
2018-01-29T05:19:59.268Z,6.40
2018-01-29T05:21:02.595Z,6.10
2018-01-29T05:22:05.067Z,6.72
2018-01-29T05:23:07.643Z,7.40
2018-01-29T05:24:10.872Z,6.55
2018-01-29T05:25:14.104Z,7.05
2018-01-29T05:26:17.353Z,6.90
2018-01-29T05:27:20.585Z,8.18
2018-01-29T05:28:23.822Z,7.00
2018-01-29T05:29:26.299Z,7.30
2018-01-29T05:30:28.775Z,7.50
2018-01-29T05:31:32.029Z,7.25
2018-01-29T05:32:35.393Z,7.35
2018-01-29T05:33:37.911Z,7.15
2018-01-29T05:34:41.116Z,7.45
2018-01-29T05:37:26.825Z,6.50
2018-01-29T05:38:31.602Z,6.72
2018-01-29T05:39:34.830Z,7.55
2018-01-29T05:40:37.393Z,6.70
2018-01-29T05:41:39.886Z,6.55
2018-01-29T05:42:43.119Z,7.25
2018-01-29T05:43:45.617Z,7.55
2018-01-29T05:44:48.103Z,7.43
2018-01-29T05:45:50.598Z,7.15
2018-01-29T05:46:53.083Z,6.87
2018-01-29T05:47:55.547Z,7.43
2018-01-29T05:48:58.004Z,7.47
2018-01-29T05:50:01.319Z,7.32
2018-01-29T05:51:04.602Z,6.82
2018-01-29T05:52:07.092Z,7.32
2018-01-29T05:53:10.333Z,7.28
2018-01-29T05:54:13.690Z,7.87
2018-01-29T05:55:16.943Z,7.12
2018-01-29T05:56:19.464Z,7.20
2018-01-29T05:57:21.923Z,8.05
2018-01-29T05:58:24.423Z,7.18
2018-01-29T05:59:26.936Z,6.85
2018-01-29T06:00:29.526Z,7.50
2018-01-29T06:01:32.022Z,8.13
2018-01-29T06:02:34.493Z,7.78
2018-01-29T06:03:37.047Z,7.43
2018-01-29T06:04:39.536Z,7.95
2018-01-29T06:05:42.040Z,7.30
2018-01-29T06:06:44.504Z,8.20
2018-01-29T06:07:47.770Z,8.48
2018-01-29T06:08:50.227Z,8.10
2018-01-29T06:09:52.706Z,7.53
2018-01-29T06:10:55.199Z,8.25
2018-01-29T06:11:57.771Z,8.13
2018-01-29T06:13:00.314Z,7.87
2018-01-29T06:14:02.786Z,8.18
2018-01-29T06:15:06.069Z,7.70
2018-01-29T06:16:08.538Z,8.10
2018-01-29T06:17:11.030Z,8.18
2018-01-29T06:18:13.644Z,8.40
2018-01-29T06:19:16.741Z,8.68
2018-01-29T06:20:19.201Z,8.15
2018-01-29T06:21:21.666Z,8.38
2018-01-29T06:22:24.472Z,8.80
2018-01-29T06:23:27.841Z,7.50
2018-01-29T06:24:30.391Z,7.35
2018-01-29T06:25:32.897Z,7.72
2018-01-29T06:26:35.415Z,8.25
2018-01-29T06:27:38.095Z,7.53
2018-01-29T06:28:41.385Z,7.75
2018-01-29T06:29:44.002Z,7.65
2018-01-29T06:30:46.484Z,7.50
2018-01-29T06:31:49.820Z,7.40
2018-01-29T06:32:52.284Z,7.43
2018-01-29T06:33:54.787Z,7.97
2018-01-29T06:34:58.225Z,7.12
2018-01-29T06:36:00.707Z,7.00
2018-01-29T06:37:03.306Z,8.18
2018-01-29T06:38:05.807Z,8.02
2018-01-29T06:39:09.116Z,7.10
2018-01-29T06:40:11.605Z,7.40
2018-01-29T06:41:14.105Z,7.15
2018-01-29T06:42:16.662Z,6.82
2018-01-29T06:43:19.123Z,7.57
2018-01-29T06:44:21.637Z,7.03
2018-01-29T06:45:24.107Z,6.65
2018-01-29T06:46:27.402Z,6.95
2018-01-29T06:47:29.927Z,6.55
2018-01-29T06:48:32.386Z,6.78
2018-01-29T06:49:35.646Z,7.45
2018-01-29T06:50:38.864Z,6.72
2018-01-29T06:51:41.328Z,6.45
2018-01-29T06:52:43.952Z,7.40
2018-01-29T06:53:46.406Z,6.75
2018-01-29T06:54:48.902Z,7.55
2018-01-29T06:55:51.384Z,6.50
2018-01-29T06:56:53.949Z,6.47
2018-01-29T06:57:56.427Z,6.93
2018-01-29T06:58:58.898Z,6.90
2018-01-29T07:00:02.151Z,6.35
2018-01-29T07:01:04.614Z,6.50
2018-01-29T07:02:07.098Z,6.25
2018-01-29T07:03:09.616Z,6.10
2018-01-29T07:04:12.076Z,6.35
2018-01-29T07:05:14.580Z,6.12
2018-01-29T07:06:17.052Z,5.95
2018-01-29T07:07:19.614Z,6.95
2018-01-29T07:08:23.474Z,6.72
2018-01-29T07:09:25.936Z,5.90
2018-01-29T07:10:28.430Z,6.55
2018-01-29T07:11:30.898Z,6.53
2018-01-29T07:12:33.421Z,6.07
2018-01-29T07:13:35.915Z,6.45
2018-01-29T07:14:38.418Z,5.70
2018-01-29T07:15:41.136Z,5.45
2018-01-29T07:16:43.669Z,5.68
2018-01-29T07:17:46.922Z,6.22
2018-01-29T07:18:49.383Z,6.32
2018-01-29T07:19:51.849Z,5.60
2018-01-29T07:20:55.082Z,5.60
2018-01-29T07:21:57.593Z,5.25
2018-01-29T07:23:00.167Z,5.32
2018-01-29T07:24:02.826Z,5.43
2018-01-29T07:25:05.341Z,5.45
2018-01-29T07:26:07.823Z,5.10
2018-01-29T07:27:11.192Z,5.05
2018-01-29T07:28:13.721Z,4.75
2018-01-29T07:29:16.189Z,4.95
2018-01-29T07:30:18.690Z,4.47
2018-01-29T07:31:21.162Z,3.97
2018-01-29T07:32:23.625Z,4.20
2018-01-29T07:33:26.201Z,4.00
2018-01-29T07:34:28.674Z,4.40
2018-01-29T07:35:31.161Z,3.67
2018-01-29T07:36:34.566Z,4.20
2018-01-29T07:37:37.039Z,3.72
2018-01-29T07:38:39.519Z,4.32
2018-01-29T07:39:42.098Z,3.90
2018-01-29T07:40:45.330Z,3.85
2018-01-29T07:41:48.578Z,4.18
2018-01-29T07:42:51.923Z,4.03
2018-01-29T07:43:55.240Z,3.90
2018-01-29T07:44:57.804Z,3.67
2018-01-29T07:46:01.113Z,3.67
2018-01-29T07:47:03.608Z,3.42
2018-01-29T07:48:06.072Z,3.50
2018-01-29T07:49:08.539Z,3.95
2018-01-29T07:50:11.063Z,3.70
2018-01-29T07:51:13.529Z,3.67
2018-01-29T07:52:16.015Z,3.92
2018-01-29T07:53:18.480Z,3.67
2018-01-29T07:54:20.943Z,3.20
2018-01-29T07:55:24.175Z,3.40
2018-01-29T07:56:26.678Z,2.80
2018-01-29T07:57:29.154Z,3.05
2018-01-29T07:58:31.646Z,3.05
2018-01-29T07:59:34.121Z,3.22
2018-01-29T08:00:36.600Z,2.83
2018-01-29T08:01:39.093Z,3.37
2018-01-29T08:02:41.584Z,3.08
2018-01-29T08:03:44.049Z,2.95
2018-01-29T08:04:46.650Z,2.55
2018-01-29T08:05:49.169Z,2.55
2018-01-29T08:06:51.640Z,2.67
2018-01-29T08:07:54.124Z,2.42
2018-01-29T08:08:56.619Z,2.55
2018-01-29T08:09:59.971Z,2.30
2018-01-29T08:11:02.435Z,2.83
2018-01-29T08:12:04.897Z,2.60
2018-01-29T08:13:07.447Z,2.72
2018-01-29T08:14:10.698Z,2.60
2018-01-29T08:15:13.212Z,2.85
2018-01-29T08:16:16.492Z,2.25
2018-01-29T08:17:18.960Z,2.70
2018-01-29T08:18:21.432Z,2.85
2018-01-29T08:19:23.947Z,2.85
2018-01-29T08:20:27.288Z,2.85
2018-01-29T08:21:30.109Z,2.75
2018-01-29T08:22:33.336Z,2.40
2018-01-29T08:23:36.573Z,2.70
2018-01-29T08:24:39.818Z,2.50
2018-01-29T08:25:42.317Z,2.53
2018-01-29T08:26:45.397Z,2.55
2018-01-29T08:27:48.624Z,2.70
2018-01-29T08:28:51.859Z,2.60
2018-01-29T08:29:54.333Z,2.50
2018-01-29T08:30:56.867Z,2.78
2018-01-29T08:31:59.375Z,2.50
2018-01-29T08:33:01.856Z,2.50
2018-01-29T08:34:04.327Z,2.80
2018-01-29T08:35:06.796Z,2.65
2018-01-29T08:36:10.049Z,2.78
2018-01-29T08:37:12.530Z,2.97
2018-01-29T08:38:15.007Z,2.50
2018-01-29T08:39:18.271Z,2.53
2018-01-29T08:40:20.758Z,2.55
2018-01-29T08:41:24.758Z,3.10
2018-01-29T08:42:27.796Z,3.17
2018-01-29T08:43:30.262Z,2.80
2018-01-29T08:44:32.765Z,3.60
2018-01-29T08:45:35.277Z,2.55
2018-01-29T08:46:37.746Z,3.22
2018-01-29T08:47:40.321Z,3.30
2018-01-29T08:48:42.783Z,2.58
2018-01-29T08:49:45.272Z,3.22
2018-01-29T08:50:48.525Z,3.35
2018-01-29T08:51:51.125Z,3.30
2018-01-29T08:52:54.387Z,3.40
2018-01-29T08:53:56.879Z,3.60
2018-01-29T08:54:59.476Z,3.50
2018-01-29T08:56:02.092Z,3.70
2018-01-29T08:57:04.576Z,3.25
2018-01-29T08:58:07.855Z,3.47
2018-01-29T08:59:10.338Z,4.00
2018-01-29T09:00:13.574Z,3.30
2018-01-29T09:01:16.955Z,3.60
2018-01-29T09:02:19.441Z,3.40
2018-01-29T09:03:21.946Z,3.80
2018-01-29T09:04:24.429Z,3.17
2018-01-29T09:05:26.897Z,3.83
2018-01-29T09:06:29.384Z,3.70
2018-01-29T09:07:31.848Z,3.53
2018-01-29T09:08:34.361Z,3.70
2018-01-29T09:09:36.824Z,3.45
2018-01-29T09:10:40.050Z,3.70
2018-01-29T09:11:42.640Z,4.03
2018-01-29T09:12:45.132Z,3.53
2018-01-29T09:13:47.638Z,3.72
2018-01-29T09:14:50.114Z,3.70
2018-01-29T09:15:52.598Z,4.05
2018-01-29T09:16:55.855Z,3.47
2018-01-29T09:17:59.090Z,3.70
2018-01-29T09:19:02.478Z,3.40
2018-01-29T09:20:05.021Z,4.05
2018-01-29T09:21:07.498Z,3.83
2018-01-29T09:22:09.970Z,3.58
2018-01-29T09:23:12.475Z,3.53
2018-01-29T09:24:14.951Z,3.62
2018-01-29T09:25:18.215Z,3.50
2018-01-29T09:26:21.456Z,3.40
2018-01-29T09:27:24.686Z,3.62
2018-01-29T09:28:27.925Z,3.70
2018-01-29T09:29:30.404Z,3.67
2018-01-29T09:30:32.926Z,3.60
2018-01-29T09:31:35.390Z,3.47
2018-01-29T09:32:38.459Z,4.10
2018-01-29T09:33:40.935Z,3.45
2018-01-29T09:34:43.483Z,3.20
2018-01-29T09:35:45.914Z,3.87
2018-01-29T09:36:49.152Z,4.47
2018-01-29T09:37:52.385Z,3.90
2018-01-29T09:38:54.842Z,3.95
2018-01-29T09:39:58.075Z,3.85
2018-01-29T09:41:00.652Z,4.03
2018-01-29T09:42:03.148Z,4.22
2018-01-29T09:43:05.654Z,4.03
2018-01-29T09:44:08.885Z,3.92
2018-01-29T09:45:12.137Z,4.15
2018-01-29T09:46:15.484Z,4.00
2018-01-29T09:47:18.013Z,4.00
2018-01-29T09:48:20.495Z,4.07
2018-01-29T09:49:22.979Z,3.58
2018-01-29T09:50:25.455Z,4.60
2018-01-29T09:51:29.462Z,4.15
2018-01-29T09:52:31.935Z,4.28
2018-01-29T09:53:35.922Z,4.65
2018-01-29T09:54:39.155Z,4.35
2018-01-29T09:55:42.771Z,4.22
2018-01-29T09:56:45.362Z,4.50
2018-01-29T09:57:47.843Z,4.20
2018-01-29T09:58:50.428Z,3.80
2018-01-29T09:59:52.930Z,4.32
2018-01-29T10:00:55.394Z,4.37
2018-01-29T10:01:58.655Z,3.78
2018-01-29T10:03:01.119Z,4.72
2018-01-29T10:04:03.802Z,4.10
2018-01-29T10:05:06.301Z,4.03
2018-01-29T10:06:08.849Z,4.45
2018-01-29T10:07:11.334Z,4.37
2018-01-29T10:08:13.816Z,4.45
2018-01-29T10:09:16.318Z,4.30
2018-01-29T10:10:18.844Z,4.95
2018-01-29T10:11:21.329Z,4.70
2018-01-29T10:12:24.582Z,5.70
2018-01-29T10:13:27.059Z,5.10
2018-01-29T10:14:30.114Z,4.47
2018-01-29T10:15:33.339Z,5.05
2018-01-29T10:16:36.668Z,4.72
2018-01-29T10:17:39.841Z,5.03
2018-01-29T10:18:43.105Z,4.50
2018-01-29T10:19:46.359Z,4.82
2018-01-29T10:20:48.902Z,4.85
2018-01-29T10:21:51.368Z,4.53
2018-01-29T10:22:53.928Z,5.10
2018-01-29T10:23:56.398Z,5.53
2018-01-29T10:24:58.865Z,5.03
2018-01-29T10:26:02.141Z,4.97
2018-01-29T10:27:04.611Z,5.90
2018-01-29T10:28:07.074Z,5.18
2018-01-29T10:29:09.542Z,4.75
2018-01-29T10:30:12.025Z,5.22
2018-01-29T10:31:14.541Z,4.90
2018-01-29T10:32:17.030Z,5.95
2018-01-29T10:33:19.502Z,4.82
2018-01-29T10:34:21.974Z,4.57
2018-01-29T10:35:24.474Z,5.72
2018-01-29T10:36:26.944Z,5.18
2018-01-29T10:37:30.229Z,4.78
2018-01-29T10:38:32.720Z,5.18
2018-01-29T10:39:35.228Z,4.70
2018-01-29T10:40:37.786Z,4.85
2018-01-29T10:41:41.017Z,5.05
2018-01-29T10:42:44.402Z,5.25
2018-01-29T10:43:46.868Z,4.93
2018-01-29T10:44:49.379Z,4.90
2018-01-29T10:45:51.850Z,5.03
2018-01-29T10:46:54.320Z,5.10
2018-01-29T10:47:56.794Z,4.60
2018-01-29T10:48:59.251Z,5.18
2018-01-29T10:50:01.775Z,5.10
2018-01-29T10:51:04.211Z,5.40
2018-01-29T10:52:06.801Z,5.43
2018-01-29T10:53:10.032Z,5.75
2018-01-29T10:54:13.290Z,5.57
2018-01-29T10:55:15.808Z,5.57
2018-01-29T10:56:18.359Z,5.82
2018-01-29T10:57:21.558Z,5.75
2018-01-29T10:58:24.945Z,5.97
2018-01-29T10:59:27.449Z,5.97
2018-01-29T11:00:30.695Z,5.85
2018-01-29T11:01:33.157Z,6.00
2018-01-29T11:02:35.668Z,5.72
2018-01-29T11:03:38.178Z,5.50
2018-01-29T11:04:40.642Z,5.90
2018-01-29T11:05:43.158Z,5.55
2018-01-29T11:06:46.161Z,5.95
2018-01-29T11:07:48.707Z,5.53
2018-01-29T11:08:51.196Z,5.35
2018-01-29T11:09:54.456Z,6.00
2018-01-29T11:10:56.937Z,5.80
2018-01-29T11:11:59.409Z,5.68
2018-01-29T11:13:01.918Z,5.43
2018-01-29T11:14:05.156Z,5.55
2018-01-29T11:15:08.396Z,5.78
2018-01-29T11:16:11.643Z,5.95
2018-01-29T11:17:14.917Z,5.60
2018-01-29T11:18:17.409Z,5.40
2018-01-29T11:19:20.624Z,5.75
2018-01-29T11:20:23.098Z,5.80
2018-01-29T11:21:25.575Z,5.45
2018-01-29T11:22:28.058Z,5.72
2018-01-29T11:23:30.558Z,5.57
2018-01-29T11:24:33.042Z,5.80
2018-01-29T11:25:35.505Z,5.55
2018-01-29T11:26:38.757Z,5.70
2018-01-29T11:27:41.241Z,5.87
2018-01-29T11:28:44.526Z,5.60
2018-01-29T11:29:47.062Z,5.50
2018-01-29T11:30:49.533Z,5.93
2018-01-29T11:31:52.072Z,5.50
2018-01-29T11:32:55.347Z,5.90
2018-01-29T11:33:57.834Z,5.80
2018-01-29T11:35:00.315Z,6.30
2018-01-29T11:36:02.778Z,6.05
2018-01-29T11:37:05.245Z,5.95
2018-01-29T11:38:07.853Z,5.90
2018-01-29T11:39:11.092Z,6.10
2018-01-29T11:40:14.469Z,5.95
2018-01-29T11:41:17.759Z,5.90
2018-01-29T11:42:20.339Z,6.03
2018-01-29T11:43:22.810Z,5.97
2018-01-29T11:44:25.278Z,5.75
2018-01-29T11:45:27.801Z,5.90
2018-01-29T11:46:30.286Z,6.40
2018-01-29T11:47:32.863Z,6.18
2018-01-29T11:48:35.327Z,6.70
2018-01-29T11:49:37.785Z,5.95
2018-01-29T11:50:41.020Z,5.90
2018-01-29T11:51:44.267Z,6.10
2018-01-29T11:52:47.538Z,6.18
2018-01-29T11:53:50.013Z,5.90
2018-01-29T11:54:52.514Z,6.35
2018-01-29T11:55:55.018Z,6.60
2018-01-29T11:56:57.501Z,5.90
2018-01-29T11:58:01.514Z,6.15
2018-01-29T11:59:04.013Z,5.72
2018-01-29T12:00:06.518Z,5.68
2018-01-29T12:01:09.909Z,6.22
2018-01-29T12:02:12.394Z,6.32
2018-01-29T12:03:15.650Z,6.60
2018-01-29T12:04:18.669Z,5.85
2018-01-29T12:05:21.938Z,6.30
2018-01-29T12:06:24.434Z,5.45
2018-01-29T12:07:27.714Z,5.80
2018-01-29T12:08:30.917Z,5.97
2018-01-29T12:09:34.226Z,6.68
2018-01-29T12:10:36.718Z,6.50
2018-01-29T12:11:39.194Z,5.80
2018-01-29T12:12:41.775Z,6.30
2018-01-29T12:13:44.255Z,5.70
2018-01-29T12:14:46.709Z,5.60
2018-01-29T12:15:49.218Z,6.43
2018-01-29T12:16:52.466Z,5.47
2018-01-29T12:17:55.706Z,5.45
2018-01-29T12:18:58.972Z,6.05
2018-01-29T12:20:01.507Z,6.30
2018-01-29T12:21:03.996Z,5.87
2018-01-29T12:22:07.252Z,6.18
2018-01-29T12:23:10.511Z,6.40
2018-01-29T12:24:13.043Z,5.50
2018-01-29T12:25:16.021Z,5.82
2018-01-29T12:26:18.516Z,6.12
2018-01-29T12:27:21.007Z,5.75
2018-01-29T12:28:24.266Z,5.70
2018-01-29T12:29:26.754Z,5.95
2018-01-29T12:30:29.274Z,6.28
2018-01-29T12:31:31.709Z,5.90
2018-01-29T12:32:34.197Z,6.60
2018-01-29T12:33:36.655Z,5.68
2018-01-29T12:34:40.306Z,6.10
2018-01-29T12:35:42.769Z,6.40
2018-01-29T12:36:45.253Z,5.60
2018-01-29T12:37:47.764Z,6.53
2018-01-29T12:38:50.262Z,6.10
2018-01-29T12:39:52.724Z,5.80
2018-01-29T12:40:55.214Z,5.80
2018-01-29T12:41:57.694Z,5.68
2018-01-29T12:43:00.944Z,5.95
2018-01-29T12:44:04.194Z,5.60
2018-01-29T12:45:06.688Z,5.97
2018-01-29T12:46:09.229Z,5.78
2018-01-29T12:47:12.464Z,5.70
2018-01-29T12:48:15.740Z,5.40
2018-01-29T12:49:18.226Z,6.03
2018-01-29T12:50:21.503Z,5.65
2018-01-29T12:51:24.742Z,5.32
2018-01-29T12:52:27.256Z,5.87
2018-01-29T12:53:30.506Z,5.12
2018-01-29T12:54:33.042Z,5.53
2018-01-29T12:55:35.567Z,5.30
2018-01-29T12:56:38.084Z,5.50
2018-01-29T12:57:40.606Z,5.40
2018-01-29T12:58:43.865Z,5.55
2018-01-29T12:59:46.391Z,5.60
2018-01-29T13:00:48.908Z,5.20
2018-01-29T13:01:51.544Z,5.20
2018-01-29T13:02:54.068Z,4.80
2018-01-29T13:03:56.692Z,5.45
2018-01-29T13:04:59.160Z,4.53
2018-01-29T13:06:01.637Z,4.80
2018-01-29T13:07:04.372Z,4.68
2018-01-29T13:08:06.903Z,5.00
2018-01-29T13:09:09.414Z,5.03
2018-01-29T13:10:12.663Z,4.20
2018-01-29T13:11:15.494Z,4.55
2018-01-29T13:12:17.986Z,5.15
2018-01-29T13:13:22.030Z,5.10
2018-01-29T13:14:24.528Z,5.05
2018-01-29T13:15:27.031Z,4.85
2018-01-29T13:16:29.510Z,5.10
2018-01-29T13:17:32.631Z,4.85
2018-01-29T13:18:35.118Z,5.30
2018-01-29T13:19:37.702Z,5.60
2018-01-29T13:20:40.269Z,5.65
2018-01-29T13:21:43.519Z,5.30
2018-01-29T13:22:46.050Z,5.80
2018-01-29T13:23:48.538Z,5.43
2018-01-29T13:24:51.726Z,5.68
2018-01-29T13:25:54.293Z,5.50
2018-01-29T13:26:56.884Z,6.75
2018-01-29T13:27:59.365Z,6.53
2018-01-29T13:29:01.920Z,6.20
2018-01-29T13:30:05.212Z,6.95
2018-01-29T13:31:07.793Z,6.32
2018-01-29T13:32:10.302Z,6.53
2018-01-29T13:33:13.546Z,6.90
2018-01-29T13:34:16.769Z,6.65
2018-01-29T13:35:19.320Z,6.72
2018-01-29T13:36:21.876Z,6.60
2018-01-29T13:37:24.367Z,6.97
2018-01-29T13:38:27.606Z,6.18
2018-01-29T13:39:30.863Z,6.72
2018-01-29T13:40:33.365Z,6.12
2018-01-29T13:41:36.730Z,6.00
2018-01-29T13:42:39.222Z,6.15
2018-01-29T13:43:42.479Z,6.35
2018-01-29T13:44:45.721Z,5.90
2018-01-29T13:45:48.277Z,5.97
2018-01-29T13:46:50.818Z,5.45
2018-01-29T13:47:53.314Z,6.12
2018-01-29T13:48:55.790Z,5.50
2018-01-29T13:49:58.294Z,4.90
2018-01-29T13:51:00.803Z,5.87
2018-01-29T13:52:03.304Z,5.90
2018-01-29T13:53:06.534Z,6.10
2018-01-29T13:54:09.001Z,6.25
2018-01-29T13:55:11.747Z,5.57
2018-01-29T13:56:14.272Z,5.60
2018-01-29T13:57:16.770Z,6.30